sensor_id;sensor_type;location;lat;lon;timestamp;P1;durP1;ratioP1;P2;durP2;ratioP2
1358;SDS011;673;48.098;14.422;2022-09-13T00:00:36;2.33;;;1.87;;
1358;SDS011;673;48.098;14.422;2022-09-13T00:03:05;5.23;;;2.03;;
1358;SDS011;673;48.098;14.422;2022-09-13T00:05:32;2.30;;;1.80;;
1358;SDS011;673;48.098;14.422;2022-09-13T00:08:02;2.20;;;2.00;;
1358;SDS011;673;48.098;14.422;2022-09-13T00:10:29;2.20;;;1.87;;
1358;SDS011;673;48.098;14.422;2022-09-13T00:12:58;2.40;;;2.20;;
1358;SDS011;673;48.098;14.422;2022-09-13T00:15:25;4.30;;;2.20;;
1358;SDS011;673;48.098;14.422;2022-09-13T00:17:53;2.67;;;2.47;;
1358;SDS011;673;48.098;14.422;2022-09-13T00:20:20;7.57;;;2.20;;
1358;SDS011;673;48.098;14.422;2022-09-13T00:22:47;2.37;;;2.17;;
1358;SDS011;673;48.098;14.422;2022-09-13T00:25:15;2.50;;;2.00;;
1358;SDS011;673;48.098;14.422;2022-09-13T00:27:43;1.70;;;1.40;;
1358;SDS011;673;48.098;14.422;2022-09-13T00:30:11;3.00;;;2.43;;
1358;SDS011;673;48.098;14.422;2022-09-13T00:32:38;2.03;;;1.60;;
1358;SDS011;673;48.098;14.422;2022-09-13T00:35:06;2.27;;;1.60;;
1358;SDS011;673;48.098;14.422;2022-09-13T00:37:33;3.20;;;2.33;;
1358;SDS011;673;48.098;14.422;2022-09-13T00:40:01;3.63;;;1.43;;
1358;SDS011;673;48.098;14.422;2022-09-13T00:42:30;3.80;;;2.63;;
1358;SDS011;673;48.098;14.422;2022-09-13T00:44:58;2.17;;;1.63;;
1358;SDS011;673;48.098;14.422;2022-09-13T00:47:29;1.83;;;1.73;;
1358;SDS011;673;48.098;14.422;2022-09-13T00:50:00;9.43;;;2.27;;
1358;SDS011;673;48.098;14.422;2022-09-13T00:52:32;1.33;;;1.20;;
1358;SDS011;673;48.098;14.422;2022-09-13T00:55:03;4.03;;;2.93;;
1358;SDS011;673;48.098;14.422;2022-09-13T00:57:38;4.00;;;3.70;;
1358;SDS011;673;48.098;14.422;2022-09-13T01:00:07;4.13;;;1.57;;
1358;SDS011;673;48.098;14.422;2022-09-13T01:02:37;2.10;;;1.83;;
1358;SDS011;673;48.098;14.422;2022-09-13T01:05:05;2.97;;;2.40;;
1358;SDS011;673;48.098;14.422;2022-09-13T01:07:33;2.40;;;2.20;;
1358;SDS011;673;48.098;14.422;2022-09-13T01:10:01;2.40;;;2.20;;
1358;SDS011;673;48.098;14.422;2022-09-13T01:12:32;3.33;;;2.07;;
1358;SDS011;673;48.098;14.422;2022-09-13T01:15:06;1.70;;;1.60;;
1358;SDS011;673;48.098;14.422;2022-09-13T01:17:34;2.13;;;1.73;;
1358;SDS011;673;48.098;14.422;2022-09-13T01:20:03;2.30;;;1.30;;
1358;SDS011;673;48.098;14.422;2022-09-13T01:31:58;2.37;;;2.03;;
1358;SDS011;673;48.098;14.422;2022-09-13T01:34:35;1.57;;;1.47;;
1358;SDS011;673;48.098;14.422;2022-09-13T01:37:20;2.50;;;2.07;;
1358;SDS011;673;48.098;14.422;2022-09-13T01:39:59;3.93;;;3.37;;
1358;SDS011;673;48.098;14.422;2022-09-13T01:42:34;4.60;;;2.20;;
1358;SDS011;673;48.098;14.422;2022-09-13T01:45:14;2.57;;;2.20;;
1358;SDS011;673;48.098;14.422;2022-09-13T01:47:49;2.57;;;1.60;;
1358;SDS011;673;48.098;14.422;2022-09-13T01:50:21;4.20;;;2.57;;
1358;SDS011;673;48.098;14.422;2022-09-13T01:52:59;6.90;;;2.60;;
1358;SDS011;673;48.098;14.422;2022-09-13T01:55:31;4.00;;;2.17;;
1358;SDS011;673;48.098;14.422;2022-09-13T01:58:04;6.43;;;1.87;;
1358;SDS011;673;48.098;14.422;2022-09-13T02:00:43;5.90;;;2.33;;
1358;SDS011;673;48.098;14.422;2022-09-13T02:03:17;1.80;;;1.50;;
1358;SDS011;673;48.098;14.422;2022-09-13T02:05:49;2.70;;;1.60;;
1358;SDS011;673;48.098;14.422;2022-09-13T02:08:21;5.90;;;1.60;;
1358;SDS011;673;48.098;14.422;2022-09-13T02:10:58;3.60;;;1.50;;
1358;SDS011;673;48.098;14.422;2022-09-13T02:13:33;4.10;;;2.67;;
1358;SDS011;673;48.098;14.422;2022-09-13T02:16:05;1.20;;;1.10;;
1358;SDS011;673;48.098;14.422;2022-09-13T02:18:37;1.67;;;1.10;;
1358;SDS011;673;48.098;14.422;2022-09-13T02:21:06;1.97;;;1.77;;
1358;SDS011;673;48.098;14.422;2022-09-13T02:23:38;1.70;;;1.60;;
1358;SDS011;673;48.098;14.422;2022-09-13T02:26:08;2.07;;;1.67;;
1358;SDS011;673;48.098;14.422;2022-09-13T02:28:40;3.00;;;2.50;;
1358;SDS011;673;48.098;14.422;2022-09-13T02:31:13;13.90;;;5.00;;
1358;SDS011;673;48.098;14.422;2022-09-13T02:33:46;12.93;;;5.27;;
1358;SDS011;673;48.098;14.422;2022-09-13T02:36:19;7.67;;;3.87;;
1358;SDS011;673;48.098;14.422;2022-09-13T02:38:49;5.00;;;2.53;;
1358;SDS011;673;48.098;14.422;2022-09-13T02:41:22;3.20;;;2.67;;
1358;SDS011;673;48.098;14.422;2022-09-13T02:43:55;2.27;;;2.07;;
1358;SDS011;673;48.098;14.422;2022-09-13T02:46:33;2.67;;;2.07;;
1358;SDS011;673;48.098;14.422;2022-09-13T02:49:10;1.70;;;1.60;;
1358;SDS011;673;48.098;14.422;2022-09-13T02:51:48;1.77;;;1.47;;
1358;SDS011;673;48.098;14.422;2022-09-13T02:54:22;1.90;;;1.80;;
1358;SDS011;673;48.098;14.422;2022-09-13T02:56:55;2.73;;;2.20;;
1358;SDS011;673;48.098;14.422;2022-09-13T02:59:26;3.80;;;2.30;;
1358;SDS011;673;48.098;14.422;2022-09-13T03:01:55;1.70;;;1.43;;
1358;SDS011;673;48.098;14.422;2022-09-13T03:04:27;2.23;;;2.03;;
1358;SDS011;673;48.098;14.422;2022-09-13T03:06:54;1.73;;;1.63;;
1358;SDS011;673;48.098;14.422;2022-09-13T03:09:21;1.73;;;1.47;;
1358;SDS011;673;48.098;14.422;2022-09-13T03:11:55;3.37;;;2.33;;
1358;SDS011;673;48.098;14.422;2022-09-13T03:14:35;1.23;;;1.13;;
1358;SDS011;673;48.098;14.422;2022-09-13T03:17:12;6.00;;;1.53;;
1358;SDS011;673;48.098;14.422;2022-09-13T03:22:49;2.73;;;1.90;;
1358;SDS011;673;48.098;14.422;2022-09-13T03:25:36;1.50;;;1.40;;
1358;SDS011;673;48.098;14.422;2022-09-13T03:28:17;5.43;;;2.10;;
1358;SDS011;673;48.098;14.422;2022-09-13T03:30:52;3.30;;;2.60;;
1358;SDS011;673;48.098;14.422;2022-09-13T03:33:27;2.00;;;1.80;;
1358;SDS011;673;48.098;14.422;2022-09-13T03:36:02;1.93;;;1.83;;
1358;SDS011;673;48.098;14.422;2022-09-13T03:38:36;1.73;;;1.63;;
1358;SDS011;673;48.098;14.422;2022-09-13T03:41:07;2.50;;;1.77;;
1358;SDS011;673;48.098;14.422;2022-09-13T03:43:38;1.50;;;1.20;;
1358;SDS011;673;48.098;14.422;2022-09-13T03:46:10;1.40;;;1.30;;
1358;SDS011;673;48.098;14.422;2022-09-13T03:48:40;2.50;;;1.93;;
1358;SDS011;673;48.098;14.422;2022-09-13T03:51:10;2.43;;;1.70;;
1358;SDS011;673;48.098;14.422;2022-09-13T03:53:38;2.40;;;2.00;;
1358;SDS011;673;48.098;14.422;2022-09-13T03:56:11;2.17;;;1.73;;
1358;SDS011;673;48.098;14.422;2022-09-13T03:58:39;3.17;;;2.30;;
1358;SDS011;673;48.098;14.422;2022-09-13T04:01:06;2.40;;;2.20;;
1358;SDS011;673;48.098;14.422;2022-09-13T04:03:34;2.20;;;2.00;;
1358;SDS011;673;48.098;14.422;2022-09-13T04:06:01;3.20;;;1.30;;
1358;SDS011;673;48.098;14.422;2022-09-13T04:08:30;1.80;;;1.63;;
1358;SDS011;673;48.098;14.422;2022-09-13T04:10:58;2.30;;;2.10;;
1358;SDS011;673;48.098;14.422;2022-09-13T04:13:25;1.90;;;1.40;;
1358;SDS011;673;48.098;14.422;2022-09-13T04:15:53;2.40;;;2.10;;
1358;SDS011;673;48.098;14.422;2022-09-13T04:18:20;4.63;;;2.70;;
1358;SDS011;673;48.098;14.422;2022-09-13T04:20:54;2.03;;;1.70;;
1358;SDS011;673;48.098;14.422;2022-09-13T04:23:22;2.70;;;2.17;;
1358;SDS011;673;48.098;14.422;2022-09-13T04:25:52;2.00;;;1.83;;
1358;SDS011;673;48.098;14.422;2022-09-13T04:28:19;1.50;;;1.40;;
1358;SDS011;673;48.098;14.422;2022-09-13T04:30:48;3.63;;;1.97;;
1358;SDS011;673;48.098;14.422;2022-09-13T04:33:15;1.53;;;1.43;;
1358;SDS011;673;48.098;14.422;2022-09-13T04:35:42;2.57;;;1.70;;
1358;SDS011;673;48.098;14.422;2022-09-13T04:38:09;1.50;;;1.40;;
1358;SDS011;673;48.098;14.422;2022-09-13T04:40:36;1.73;;;1.63;;
1358;SDS011;673;48.098;14.422;2022-09-13T04:43:06;3.90;;;1.43;;
1358;SDS011;673;48.098;14.422;2022-09-13T04:45:33;1.67;;;1.27;;
1358;SDS011;673;48.098;14.422;2022-09-13T04:48:00;1.20;;;1.00;;
1358;SDS011;673;48.098;14.422;2022-09-13T04:50:27;2.27;;;1.67;;
1358;SDS011;673;48.098;14.422;2022-09-13T04:52:55;1.90;;;1.50;;
1358;SDS011;673;48.098;14.422;2022-09-13T04:55:22;2.17;;;1.70;;
1358;SDS011;673;48.098;14.422;2022-09-13T04:57:53;2.27;;;2.07;;
1358;SDS011;673;48.098;14.422;2022-09-13T05:00:22;1.97;;;1.87;;
1358;SDS011;673;48.098;14.422;2022-09-13T05:02:53;5.93;;;3.77;;
1358;SDS011;673;48.098;14.422;2022-09-13T05:05:21;2.87;;;2.67;;
1358;SDS011;673;48.098;14.422;2022-09-13T05:07:49;1.73;;;1.63;;
1358;SDS011;673;48.098;14.422;2022-09-13T05:10:17;1.67;;;1.57;;
1358;SDS011;673;48.098;14.422;2022-09-13T05:12:44;1.67;;;1.50;;
1358;SDS011;673;48.098;14.422;2022-09-13T05:15:11;4.00;;;1.30;;
1358;SDS011;673;48.098;14.422;2022-09-13T05:17:39;3.00;;;2.63;;
1358;SDS011;673;48.098;14.422;2022-09-13T05:20:07;5.53;;;2.57;;
1358;SDS011;673;48.098;14.422;2022-09-13T05:22:34;3.60;;;1.97;;
1358;SDS011;673;48.098;14.422;2022-09-13T05:25:01;3.03;;;2.23;;
1358;SDS011;673;48.098;14.422;2022-09-13T05:27:28;4.70;;;2.10;;
1358;SDS011;673;48.098;14.422;2022-09-13T05:29:55;1.57;;;1.47;;
1358;SDS011;673;48.098;14.422;2022-09-13T05:32:22;2.90;;;2.20;;
1358;SDS011;673;48.098;14.422;2022-09-13T05:34:51;2.57;;;2.37;;
1358;SDS011;673;48.098;14.422;2022-09-13T05:37:17;3.57;;;2.40;;
1358;SDS011;673;48.098;14.422;2022-09-13T05:39:44;5.53;;;2.87;;
1358;SDS011;673;48.098;14.422;2022-09-13T05:42:11;2.80;;;2.50;;
1358;SDS011;673;48.098;14.422;2022-09-13T05:44:38;4.53;;;2.03;;
1358;SDS011;673;48.098;14.422;2022-09-13T05:47:06;3.67;;;2.57;;
1358;SDS011;673;48.098;14.422;2022-09-13T05:49:33;4.97;;;2.80;;
1358;SDS011;673;48.098;14.422;2022-09-13T05:52:01;3.20;;;2.90;;
1358;SDS011;673;48.098;14.422;2022-09-13T05:54:28;3.90;;;3.00;;
1358;SDS011;673;48.098;14.422;2022-09-13T05:56:55;3.07;;;2.87;;
1358;SDS011;673;48.098;14.422;2022-09-13T05:59:22;2.87;;;1.90;;
1358;SDS011;673;48.098;14.422;2022-09-13T06:01:49;2.43;;;2.23;;
1358;SDS011;673;48.098;14.422;2022-09-13T06:04:16;2.60;;;2.40;;
1358;SDS011;673;48.098;14.422;2022-09-13T06:06:43;2.20;;;2.03;;
1358;SDS011;673;48.098;14.422;2022-09-13T06:09:12;3.03;;;2.70;;
1358;SDS011;673;48.098;14.422;2022-09-13T06:11:39;4.23;;;2.97;;
1358;SDS011;673;48.098;14.422;2022-09-13T06:14:06;7.23;;;3.23;;
1358;SDS011;673;48.098;14.422;2022-09-13T06:16:33;3.40;;;2.33;;
1358;SDS011;673;48.098;14.422;2022-09-13T06:19:00;3.97;;;3.30;;
1358;SDS011;673;48.098;14.422;2022-09-13T06:21:28;2.40;;;2.20;;
1358;SDS011;673;48.098;14.422;2022-09-13T06:23:55;2.40;;;2.20;;
1358;SDS011;673;48.098;14.422;2022-09-13T06:26:24;3.00;;;2.77;;
1358;SDS011;673;48.098;14.422;2022-09-13T06:28:53;3.90;;;3.23;;
1358;SDS011;673;48.098;14.422;2022-09-13T06:31:21;4.77;;;4.20;;
1358;SDS011;673;48.098;14.422;2022-09-13T06:33:54;4.10;;;3.33;;
1358;SDS011;673;48.098;14.422;2022-09-13T06:36:22;3.90;;;3.30;;
1358;SDS011;673;48.098;14.422;2022-09-13T06:38:50;4.30;;;3.63;;
1358;SDS011;673;48.098;14.422;2022-09-13T06:41:18;3.80;;;3.50;;
1358;SDS011;673;48.098;14.422;2022-09-13T06:43:50;5.07;;;4.57;;
1358;SDS011;673;48.098;14.422;2022-09-13T06:46:18;4.00;;;3.70;;
1358;SDS011;673;48.098;14.422;2022-09-13T06:48:46;10.70;;;4.07;;
1358;SDS011;673;48.098;14.422;2022-09-13T06:51:14;6.97;;;3.67;;
1358;SDS011;673;48.098;14.422;2022-09-13T06:53:42;4.97;;;3.80;;
1358;SDS011;673;48.098;14.422;2022-09-13T06:56:12;6.67;;;3.93;;
1358;SDS011;673;48.098;14.422;2022-09-13T06:58:40;4.57;;;4.17;;
1358;SDS011;673;48.098;14.422;2022-09-13T07:01:10;4.70;;;3.73;;
1358;SDS011;673;48.098;14.422;2022-09-13T07:03:39;4.30;;;3.30;;
1358;SDS011;673;48.098;14.422;2022-09-13T07:06:09;4.63;;;3.37;;
1358;SDS011;673;48.098;14.422;2022-09-13T07:08:40;8.07;;;3.60;;
1358;SDS011;673;48.098;14.422;2022-09-13T07:11:11;4.07;;;3.63;;
1358;SDS011;673;48.098;14.422;2022-09-13T07:13:46;3.00;;;2.70;;
1358;SDS011;673;48.098;14.422;2022-09-13T07:16:17;3.00;;;2.70;;
1358;SDS011;673;48.098;14.422;2022-09-13T07:18:49;3.90;;;3.47;;
1358;SDS011;673;48.098;14.422;2022-09-13T07:21:19;3.33;;;3.00;;
1358;SDS011;673;48.098;14.422;2022-09-13T07:23:48;4.33;;;2.87;;
1358;SDS011;673;48.098;14.422;2022-09-13T07:26:17;5.70;;;4.57;;
1358;SDS011;673;48.098;14.422;2022-09-13T07:28:46;4.17;;;3.30;;
1358;SDS011;673;48.098;14.422;2022-09-13T07:31:17;5.20;;;3.50;;
1358;SDS011;673;48.098;14.422;2022-09-13T07:33:47;6.13;;;3.10;;
1358;SDS011;673;48.098;14.422;2022-09-13T07:36:19;3.13;;;2.83;;
1358;SDS011;673;48.098;14.422;2022-09-13T07:38:48;4.80;;;3.40;;
1358;SDS011;673;48.098;14.422;2022-09-13T07:41:15;3.77;;;2.57;;
1358;SDS011;673;48.098;14.422;2022-09-13T07:43:44;3.00;;;2.80;;
1358;SDS011;673;48.098;14.422;2022-09-13T07:46:12;2.83;;;2.63;;
1358;SDS011;673;48.098;14.422;2022-09-13T07:48:42;4.20;;;2.60;;
1358;SDS011;673;48.098;14.422;2022-09-13T07:51:11;3.57;;;3.27;;
1358;SDS011;673;48.098;14.422;2022-09-13T07:53:40;2.80;;;2.60;;
1358;SDS011;673;48.098;14.422;2022-09-13T07:56:09;3.40;;;3.10;;
1358;SDS011;673;48.098;14.422;2022-09-13T07:58:37;3.27;;;3.00;;
1358;SDS011;673;48.098;14.422;2022-09-13T08:01:06;4.23;;;2.93;;
1358;SDS011;673;48.098;14.422;2022-09-13T08:03:35;5.43;;;3.60;;
1358;SDS011;673;48.098;14.422;2022-09-13T08:06:04;2.97;;;2.33;;
1358;SDS011;673;48.098;14.422;2022-09-13T08:08:33;3.90;;;3.50;;
1358;SDS011;673;48.098;14.422;2022-09-13T08:11:01;4.00;;;3.50;;
1358;SDS011;673;48.098;14.422;2022-09-13T08:13:30;4.20;;;3.90;;
1358;SDS011;673;48.098;14.422;2022-09-13T08:15:59;4.90;;;4.40;;
1358;SDS011;673;48.098;14.422;2022-09-13T08:18:27;4.80;;;4.00;;
1358;SDS011;673;48.098;14.422;2022-09-13T08:20:55;5.33;;;4.23;;
1358;SDS011;673;48.098;14.422;2022-09-13T08:23:24;3.73;;;3.47;;
1358;SDS011;673;48.098;14.422;2022-09-13T08:25:51;4.23;;;3.77;;
1358;SDS011;673;48.098;14.422;2022-09-13T08:28:19;8.70;;;4.33;;
1358;SDS011;673;48.098;14.422;2022-09-13T08:30:47;9.13;;;4.40;;
1358;SDS011;673;48.098;14.422;2022-09-13T08:33:14;5.47;;;4.97;;
1358;SDS011;673;48.098;14.422;2022-09-13T08:35:49;4.57;;;4.00;;
1358;SDS011;673;48.098;14.422;2022-09-13T08:38:17;4.00;;;3.60;;
1358;SDS011;673;48.098;14.422;2022-09-13T08:40:48;4.87;;;3.97;;
1358;SDS011;673;48.098;14.422;2022-09-13T08:43:19;3.93;;;3.63;;
1358;SDS011;673;48.098;14.422;2022-09-13T08:45:55;4.30;;;4.00;;
1358;SDS011;673;48.098;14.422;2022-09-13T08:48:29;7.13;;;5.07;;
1358;SDS011;673;48.098;14.422;2022-09-13T08:51:02;5.57;;;5.07;;
1358;SDS011;673;48.098;14.422;2022-09-13T08:53:35;4.83;;;4.47;;
1358;SDS011;673;48.098;14.422;2022-09-13T08:56:08;5.33;;;4.93;;
1358;SDS011;673;48.098;14.422;2022-09-13T08:58:41;6.90;;;6.30;;
1358;SDS011;673;48.098;14.422;2022-09-13T09:01:29;5.30;;;4.90;;
1358;SDS011;673;48.098;14.422;2022-09-13T09:04:06;5.23;;;4.40;;
1358;SDS011;673;48.098;14.422;2022-09-13T09:07:21;4.10;;;3.80;;
1358;SDS011;673;48.098;14.422;2022-09-13T09:09:52;3.70;;;3.40;;
1358;SDS011;673;48.098;14.422;2022-09-13T09:12:28;5.57;;;5.07;;
1358;SDS011;673;48.098;14.422;2022-09-13T09:15:01;5.10;;;4.63;;
1358;SDS011;673;48.098;14.422;2022-09-13T09:17:34;4.03;;;3.73;;
1358;SDS011;673;48.098;14.422;2022-09-13T09:20:15;6.13;;;5.50;;
1358;SDS011;673;48.098;14.422;2022-09-13T09:22:49;5.83;;;4.70;;
1358;SDS011;673;48.098;14.422;2022-09-13T09:25:19;5.87;;;5.37;;
1358;SDS011;673;48.098;14.422;2022-09-13T09:27:51;4.27;;;3.87;;
1358;SDS011;673;48.098;14.422;2022-09-13T09:30:18;4.20;;;3.90;;
1358;SDS011;673;48.098;14.422;2022-09-13T09:32:59;3.97;;;3.67;;
1358;SDS011;673;48.098;14.422;2022-09-13T09:35:37;6.40;;;4.07;;
1358;SDS011;673;48.098;14.422;2022-09-13T09:38:22;4.00;;;3.70;;
1358;SDS011;673;48.098;14.422;2022-09-13T09:40:59;3.27;;;3.07;;
1358;SDS011;673;48.098;14.422;2022-09-13T09:43:32;6.37;;;2.60;;
1358;SDS011;673;48.098;14.422;2022-09-13T09:46:04;4.33;;;3.93;;
1358;SDS011;673;48.098;14.422;2022-09-13T09:48:36;3.80;;;3.50;;
1358;SDS011;673;48.098;14.422;2022-09-13T09:51:07;3.70;;;3.40;;
1358;SDS011;673;48.098;14.422;2022-09-13T09:53:36;3.63;;;3.33;;
1358;SDS011;673;48.098;14.422;2022-09-13T09:56:14;4.27;;;3.87;;
1358;SDS011;673;48.098;14.422;2022-09-13T09:58:48;3.87;;;3.60;;
1358;SDS011;673;48.098;14.422;2022-09-13T10:01:18;3.27;;;3.07;;
1358;SDS011;673;48.098;14.422;2022-09-13T10:03:50;2.37;;;2.23;;
1358;SDS011;673;48.098;14.422;2022-09-13T10:06:20;4.37;;;3.70;;
1358;SDS011;673;48.098;14.422;2022-09-13T10:08:53;3.27;;;2.93;;
1358;SDS011;673;48.098;14.422;2022-09-13T10:11:36;3.17;;;2.97;;
1358;SDS011;673;48.098;14.422;2022-09-13T10:17:01;3.10;;;2.90;;
1358;SDS011;673;48.098;14.422;2022-09-13T10:19:30;3.70;;;2.73;;
1358;SDS011;673;48.098;14.422;2022-09-13T10:22:01;4.50;;;3.03;;
1358;SDS011;673;48.098;14.422;2022-09-13T10:24:29;3.70;;;3.40;;
1358;SDS011;673;48.098;14.422;2022-09-13T10:26:57;4.20;;;3.67;;
1358;SDS011;673;48.098;14.422;2022-09-13T10:29:25;3.13;;;2.87;;
1358;SDS011;673;48.098;14.422;2022-09-13T10:31:54;2.83;;;2.50;;
1358;SDS011;673;48.098;14.422;2022-09-13T10:34:26;3.50;;;3.30;;
1358;SDS011;673;48.098;14.422;2022-09-13T10:36:56;2.83;;;2.53;;
1358;SDS011;673;48.098;14.422;2022-09-13T10:39:25;2.50;;;2.37;;
1358;SDS011;673;48.098;14.422;2022-09-13T10:41:55;4.23;;;2.70;;
1358;SDS011;673;48.098;14.422;2022-09-13T10:44:29;3.53;;;2.60;;
1358;SDS011;673;48.098;14.422;2022-09-13T10:47:09;2.60;;;2.40;;
1358;SDS011;673;48.098;14.422;2022-09-13T10:49:39;3.87;;;3.50;;
1358;SDS011;673;48.098;14.422;2022-09-13T10:54:53;3.47;;;3.00;;
1358;SDS011;673;48.098;14.422;2022-09-13T10:57:30;4.03;;;3.67;;
1358;SDS011;673;48.098;14.422;2022-09-13T10:59:59;3.77;;;3.50;;
1358;SDS011;673;48.098;14.422;2022-09-13T11:02:40;2.80;;;2.60;;
1358;SDS011;673;48.098;14.422;2022-09-13T11:05:23;2.80;;;2.60;;
1358;SDS011;673;48.098;14.422;2022-09-13T11:08:04;2.23;;;2.10;;
1358;SDS011;673;48.098;14.422;2022-09-13T11:10:41;2.50;;;2.30;;
1358;SDS011;673;48.098;14.422;2022-09-13T11:13:17;2.77;;;2.40;;
1358;SDS011;673;48.098;14.422;2022-09-13T11:15:52;2.97;;;2.30;;
1358;SDS011;673;48.098;14.422;2022-09-13T11:18:35;2.73;;;2.40;;
1358;SDS011;673;48.098;14.422;2022-09-13T11:21:17;2.73;;;2.53;;
1358;SDS011;673;48.098;14.422;2022-09-13T11:24:07;2.90;;;2.37;;
1358;SDS011;673;48.098;14.422;2022-09-13T11:26:54;3.10;;;2.90;;
1358;SDS011;673;48.098;14.422;2022-09-13T11:29:42;3.17;;;2.30;;
1358;SDS011;673;48.098;14.422;2022-09-13T11:32:19;2.90;;;2.30;;
1358;SDS011;673;48.098;14.422;2022-09-13T11:35:03;3.97;;;2.00;;
1358;SDS011;673;48.098;14.422;2022-09-13T11:37:45;1.70;;;1.60;;
1358;SDS011;673;48.098;14.422;2022-09-13T11:43:12;2.40;;;2.30;;
1358;SDS011;673;48.098;14.422;2022-09-13T11:45:51;1.90;;;1.80;;
1358;SDS011;673;48.098;14.422;2022-09-13T11:48:34;2.10;;;2.00;;
1358;SDS011;673;48.098;14.422;2022-09-13T11:51:29;5.30;;;2.50;;
1358;SDS011;673;48.098;14.422;2022-09-13T11:54:11;3.83;;;2.50;;
1358;SDS011;673;48.098;14.422;2022-09-13T11:56:47;1.63;;;1.53;;
1358;SDS011;673;48.098;14.422;2022-09-13T11:59:18;1.73;;;1.47;;
1358;SDS011;673;48.098;14.422;2022-09-13T12:01:53;2.83;;;1.53;;
1358;SDS011;673;48.098;14.422;2022-09-13T12:04:26;1.63;;;1.50;;
1358;SDS011;673;48.098;14.422;2022-09-13T12:07:00;1.57;;;1.47;;
1358;SDS011;673;48.098;14.422;2022-09-13T12:09:34;4.03;;;1.40;;
1358;SDS011;673;48.098;14.422;2022-09-13T12:12:06;2.00;;;1.90;;
1358;SDS011;673;48.098;14.422;2022-09-13T12:14:44;2.10;;;1.67;;
1358;SDS011;673;48.098;14.422;2022-09-13T12:17:21;1.70;;;1.53;;
1358;SDS011;673;48.098;14.422;2022-09-13T12:19:52;2.53;;;2.33;;
1358;SDS011;673;48.098;14.422;2022-09-13T12:22:22;2.73;;;1.87;;
1358;SDS011;673;48.098;14.422;2022-09-13T12:24:53;2.43;;;1.40;;
1358;SDS011;673;48.098;14.422;2022-09-13T12:27:24;1.90;;;1.57;;
1358;SDS011;673;48.098;14.422;2022-09-13T12:29:56;2.80;;;1.50;;
1358;SDS011;673;48.098;14.422;2022-09-13T12:32:31;1.57;;;1.47;;
1358;SDS011;673;48.098;14.422;2022-09-13T12:34:59;2.03;;;1.50;;
1358;SDS011;673;48.098;14.422;2022-09-13T12:37:39;1.90;;;1.70;;
1358;SDS011;673;48.098;14.422;2022-09-13T12:40:33;3.30;;;1.63;;
1358;SDS011;673;48.098;14.422;2022-09-13T12:43:27;2.23;;;1.60;;
1358;SDS011;673;48.098;14.422;2022-09-13T12:46:26;2.07;;;1.67;;
1358;SDS011;673;48.098;14.422;2022-09-13T12:49:06;1.50;;;1.40;;
1358;SDS011;673;48.098;14.422;2022-09-13T12:57:56;1.27;;;1.27;;
1358;SDS011;673;48.098;14.422;2022-09-13T13:00:31;2.70;;;2.03;;
1358;SDS011;673;48.098;14.422;2022-09-13T13:03:04;1.60;;;1.50;;
1358;SDS011;673;48.098;14.422;2022-09-13T13:05:40;2.10;;;1.50;;
1358;SDS011;673;48.098;14.422;2022-09-13T13:08:18;1.40;;;1.30;;
1358;SDS011;673;48.098;14.422;2022-09-13T13:11:02;3.80;;;1.10;;
1358;SDS011;673;48.098;14.422;2022-09-13T13:13:33;1.20;;;1.20;;
1358;SDS011;673;48.098;14.422;2022-09-13T13:16:04;1.53;;;1.00;;
1358;SDS011;673;48.098;14.422;2022-09-13T13:18:47;1.20;;;1.10;;
1358;SDS011;673;48.098;14.422;2022-09-13T13:33:16;1.30;;;1.20;;
1358;SDS011;673;48.098;14.422;2022-09-13T13:35:44;1.43;;;1.30;;
1358;SDS011;673;48.098;14.422;2022-09-13T13:38:27;1.23;;;1.00;;
1358;SDS011;673;48.098;14.422;2022-09-13T13:50:18;1.63;;;1.47;;
1358;SDS011;673;48.098;14.422;2022-09-13T13:52:55;1.43;;;1.33;;
1358;SDS011;673;48.098;14.422;2022-09-13T13:55:37;5.40;;;2.07;;
1358;SDS011;673;48.098;14.422;2022-09-13T13:58:14;2.47;;;1.57;;
1358;SDS011;673;48.098;14.422;2022-09-13T14:00:51;1.27;;;1.17;;
1358;SDS011;673;48.098;14.422;2022-09-13T14:03:24;8.67;;;3.33;;
1358;SDS011;673;48.098;14.422;2022-09-13T14:05:56;1.97;;;1.40;;
1358;SDS011;673;48.098;14.422;2022-09-13T14:08:35;0.87;;;0.87;;
1358;SDS011;673;48.098;14.422;2022-09-13T14:11:13;1.90;;;1.63;;
1358;SDS011;673;48.098;14.422;2022-09-13T14:13:51;4.37;;;2.80;;
1358;SDS011;673;48.098;14.422;2022-09-13T14:16:32;3.80;;;2.70;;
1358;SDS011;673;48.098;14.422;2022-09-13T14:19:25;2.70;;;1.60;;
1358;SDS011;673;48.098;14.422;2022-09-13T14:22:12;1.97;;;1.30;;
1358;SDS011;673;48.098;14.422;2022-09-13T14:24:41;3.37;;;2.40;;
1358;SDS011;673;48.098;14.422;2022-09-13T14:27:18;1.63;;;1.50;;
1358;SDS011;673;48.098;14.422;2022-09-13T14:29:47;2.33;;;1.47;;
1358;SDS011;673;48.098;14.422;2022-09-13T14:32:17;1.37;;;1.20;;
1358;SDS011;673;48.098;14.422;2022-09-13T14:34:53;3.10;;;1.40;;
1358;SDS011;673;48.098;14.422;2022-09-13T14:37:25;0.97;;;0.97;;
1358;SDS011;673;48.098;14.422;2022-09-13T14:39:59;1.77;;;1.63;;
1358;SDS011;673;48.098;14.422;2022-09-13T14:42:37;1.47;;;1.00;;
1358;SDS011;673;48.098;14.422;2022-09-13T14:45:05;4.07;;;1.00;;
1358;SDS011;673;48.098;14.422;2022-09-13T14:47:38;1.00;;;1.00;;
1358;SDS011;673;48.098;14.422;2022-09-13T14:50:17;1.40;;;1.30;;
1358;SDS011;673;48.098;14.422;2022-09-13T14:52:48;1.23;;;1.13;;
1358;SDS011;673;48.098;14.422;2022-09-13T14:55:19;1.93;;;1.47;;
1358;SDS011;673;48.098;14.422;2022-09-13T14:57:51;1.40;;;1.00;;
1358;SDS011;673;48.098;14.422;2022-09-13T15:00:22;1.97;;;1.00;;
1358;SDS011;673;48.098;14.422;2022-09-13T15:02:52;26.83;;;3.80;;
1358;SDS011;673;48.098;14.422;2022-09-13T15:05:23;0.90;;;0.90;;
1358;SDS011;673;48.098;14.422;2022-09-13T15:07:53;1.47;;;1.10;;
1358;SDS011;673;48.098;14.422;2022-09-13T15:10:21;1.10;;;1.10;;
1358;SDS011;673;48.098;14.422;2022-09-13T15:12:51;1.80;;;0.80;;
1358;SDS011;673;48.098;14.422;2022-09-13T15:18:03;1.37;;;0.90;;
1358;SDS011;673;48.098;14.422;2022-09-13T15:23:16;1.63;;;0.80;;
1358;SDS011;673;48.098;14.422;2022-09-13T15:25:46;8.80;;;2.40;;
1358;SDS011;673;48.098;14.422;2022-09-13T15:28:20;0.80;;;0.80;;
1358;SDS011;673;48.098;14.422;2022-09-13T15:30:49;0.80;;;0.80;;
1358;SDS011;673;48.098;14.422;2022-09-13T15:33:21;0.73;;;0.73;;
1358;SDS011;673;48.098;14.422;2022-09-13T15:35:51;1.70;;;0.70;;
1358;SDS011;673;48.098;14.422;2022-09-13T15:38:46;2.33;;;1.00;;
1358;SDS011;673;48.098;14.422;2022-09-13T15:41:26;2.70;;;0.87;;
1358;SDS011;673;48.098;14.422;2022-09-13T15:43:55;1.83;;;1.40;;
1358;SDS011;673;48.098;14.422;2022-09-13T15:46:22;1.30;;;0.90;;
1358;SDS011;673;48.098;14.422;2022-09-13T15:48:50;7.47;;;1.53;;
1358;SDS011;673;48.098;14.422;2022-09-13T15:51:20;1.67;;;1.20;;
1358;SDS011;673;48.098;14.422;2022-09-13T15:53:48;1.40;;;0.97;;
1358;SDS011;673;48.098;14.422;2022-09-13T15:56:16;2.30;;;1.10;;
1358;SDS011;673;48.098;14.422;2022-09-13T15:58:45;0.90;;;0.90;;
1358;SDS011;673;48.098;14.422;2022-09-13T16:01:12;3.93;;;1.03;;
1358;SDS011;673;48.098;14.422;2022-09-13T16:03:41;2.70;;;1.27;;
1358;SDS011;673;48.098;14.422;2022-09-13T16:06:08;1.73;;;1.40;;
1358;SDS011;673;48.098;14.422;2022-09-13T16:08:37;1.40;;;1.10;;
1358;SDS011;673;48.098;14.422;2022-09-13T16:11:05;4.03;;;1.13;;
1358;SDS011;673;48.098;14.422;2022-09-13T16:13:33;2.10;;;1.20;;
1358;SDS011;673;48.098;14.422;2022-09-13T16:16:01;1.37;;;1.27;;
1358;SDS011;673;48.098;14.422;2022-09-13T16:18:29;1.87;;;1.33;;
1358;SDS011;673;48.098;14.422;2022-09-13T16:20:56;3.40;;;1.30;;
1358;SDS011;673;48.098;14.422;2022-09-13T16:23:23;4.53;;;1.37;;
1358;SDS011;673;48.098;14.422;2022-09-13T16:25:53;1.30;;;1.20;;
1358;SDS011;673;48.098;14.422;2022-09-13T16:28:22;1.97;;;1.23;;
1358;SDS011;673;48.098;14.422;2022-09-13T16:30:50;2.17;;;1.07;;
1358;SDS011;673;48.098;14.422;2022-09-13T16:33:18;1.30;;;1.20;;
1358;SDS011;673;48.098;14.422;2022-09-13T16:35:45;2.40;;;1.43;;
1358;SDS011;673;48.098;14.422;2022-09-13T16:38:12;0.87;;;0.87;;